Time;durP1;ratioP1;P1;durP2;ratioP2;P2;SDS_P1;SDS_P2;PMS_P1;PMS_P2;Temp;Humidity;BMP_temperature;BMP_pressure;BME280_temperature;BME280_humidity;BME280_pressure;Samples;Min_cycle;Max_cycle;Signal;HPM_P1;HPM_P2
2023/04/19 00:01:13;;;;;;;9.25;4.50;;;;;;;9.59;39.54;99854.94;4934745;28;20508;-57
2023/04/19 00:03:44;;;;;;;14.82;4.88;;;;;;;9.67;39.65;99853.03;4934713;28;20463;-55
2023/04/19 00:06:15;;;;;;;12.02;3.63;;;;;;;9.77;39.60;99848.50;4935146;28;20851;-56
2023/04/19 00:08:45;;;;;;;10.00;3.78;;;;;;;9.91;39.09;99852.56;4931135;28;20059;-56
2023/04/19 00:11:16;;;;;;;11.88;3.85;;;;;;;10.00;38.98;99845.44;4922292;28;20601;-56
2023/04/19 00:13:48;;;;;;;12.98;3.60;;;;;;;10.18;38.83;99842.41;4920085;28;20041;-56
2023/04/19 00:16:18;;;;;;;13.02;4.15;;;;;;;10.28;38.69;99851.84;4915849;28;20044;-57
2023/04/19 00:18:49;;;;;;;16.77;5.05;;;;;;;10.40;39.13;99844.59;4915784;28;20056;-57
2023/04/19 00:21:19;;;;;;;13.45;4.10;;;;;;;10.50;39.03;99830.44;4916395;28;20041;-57
2023/04/19 00:23:50;;;;;;;16.20;4.95;;;;;;;10.64;38.93;99835.34;4916230;28;20056;-58
2023/04/19 00:26:21;;;;;;;13.60;5.10;;;;;;;10.56;38.34;99840.75;4915925;28;20044;-56
2023/04/19 00:28:53;;;;;;;22.60;7.28;;;;;;;10.45;38.19;99825.31;4915934;28;20048;-57
2023/04/19 00:31:24;;;;;;;16.42;6.80;;;;;;;10.53;38.19;99835.59;4915160;28;20465;-58
2023/04/19 00:33:55;;;;;;;18.98;6.80;;;;;;;10.61;38.19;99823.22;4914977;28;20112;-51
2023/04/19 00:36:26;;;;;;;17.73;6.43;;;;;;;10.83;37.42;99833.16;4921319;28;20068;-56
2023/04/19 00:38:56;;;;;;;16.52;6.15;;;;;;;11.10;36.82;99829.84;4917966;28;20585;-58
2023/04/19 00:41:27;;;;;;;14.45;5.90;;;;;;;11.35;35.90;99831.81;4915865;28;20051;-57
2023/04/19 00:43:59;;;;;;;15.52;5.53;;;;;;;11.48;34.85;99822.75;4914771;28;20049;-57
2023/04/19 00:46:30;;;;;;;19.65;6.30;;;;;;;11.75;35.76;99825.50;4913538;28;20085;-57
2023/04/19 00:49:00;;;;;;;16.13;5.40;;;;;;;12.11;34.47;99828.03;4911653;28;20873;-57
2023/04/19 00:51:31;;;;;;;10.88;4.10;;;;;;;12.22;33.25;99825.91;4929936;28;20043;-58
2023/04/19 00:54:03;;;;;;;9.07;3.95;;;;;;;12.32;33.04;99823.88;4930811;28;20044;-58
2023/04/19 00:56:35;;;;;;;11.38;4.82;;;;;;;12.43;32.43;99825.28;4929640;28;20055;-58
2023/04/19 00:59:08;;;;;;;9.68;3.63;;;;;;;12.51;32.38;99825.88;4927013;28;20436;-56
2023/04/19 01:01:39;;;;;;;16.63;3.50;;;;;;;12.69;32.35;99815.72;4930385;28;20078;-54
2023/04/19 01:04:10;;;;;;;11.77;3.30;;;;;;;12.82;31.37;99814.41;4929299;28;20048;-57
2023/04/19 01:06:42;;;;;;;8.38;3.17;;;;;;;13.03;31.08;99815.50;4925322;28;20920;-58
2023/04/19 01:09:13;;;;;;;9.80;2.53;;;;;;;13.15;30.64;99804.59;4917903;28;20095;-57
2023/04/19 01:11:43;;;;;;;10.35;3.65;;;;;;;13.32;29.90;99811.88;4914551;28;20146;-58
2023/04/19 01:14:15;;;;;;;7.35;2.70;;;;;;;13.27;29.42;99811.19;4915714;28;20048;-58
2023/04/19 01:16:46;;;;;;;8.65;2.92;;;;;;;13.05;29.30;99802.31;4918471;28;20068;-58
2023/04/19 01:19:17;;;;;;;8.38;2.75;;;;;;;13.14;30.28;99810.72;4928655;28;20064;-58
2023/04/19 01:21:47;;;;;;;7.95;2.40;;;;;;;13.09;29.67;99814.41;4936682;28;20052;-58
2023/04/19 01:24:19;;;;;;;9.13;4.05;;;;;;;13.14;29.59;99802.00;4940020;28;20056;-58
2023/04/19 01:26:50;;;;;;;6.75;3.40;;;;;;;13.09;29.87;99803.91;4939408;28;20047;-58
2023/04/19 01:29:21;;;;;;;9.75;2.83;;;;;;;13.01;29.68;99800.72;4938850;28;20078;-58
2023/04/19 01:31:52;;;;;;;10.88;2.95;;;;;;;13.15;29.45;99803.69;4938888;28;20126;-59
2023/04/19 01:34:23;;;;;;;7.88;3.03;;;;;;;13.15;29.39;99798.44;4940109;28;20047;-58
2023/04/19 01:36:53;;;;;;;8.15;3.00;;;;;;;13.37;29.42;99799.44;4918554;28;20056;-58
2023/04/19 01:39:27;;;;;;;7.95;2.90;;;;;;;13.39;28.69;99802.03;4917852;28;20646;-57
2023/04/19 01:41:57;;;;;;;9.18;2.78;;;;;;;13.35;29.88;99798.66;4908515;28;20503;-57
2023/04/19 01:44:28;;;;;;;8.32;2.90;;;;;;;13.46;30.03;99793.03;4918636;28;20101;-58
2023/04/19 01:46:58;;;;;;;9.20;2.97;;;;;;;13.60;29.17;99787.28;4917879;28;20051;-58
2023/04/19 01:49:29;;;;;;;6.10;2.45;;;;;;;13.57;29.48;99779.50;4916449;28;20776;-59
2023/04/19 01:51:59;;;;;;;9.85;2.90;;;;;;;13.57;29.05;99769.00;4918231;28;20063;-59
2023/04/19 01:54:32;;;;;;;7.65;3.08;;;;;;;13.60;28.40;99763.66;4925721;28;20108;-59
2023/04/19 01:57:02;;;;;;;6.32;2.90;;;;;;;13.49;28.44;99765.81;4918836;28;20071;-59
2023/04/19 01:59:33;;;;;;;7.43;2.63;;;;;;;13.65;28.97;99764.34;4917625;28;20052;-58
2023/04/19 02:02:03;;;;;;;7.82;2.88;;;;;;;13.80;28.84;99761.16;4916927;28;20055;-59
2023/04/19 02:04:36;;;;;;;9.15;2.72;;;;;;;13.92;27.59;99764.22;4916579;28;20040;-59
2023/04/19 02:07:09;;;;;;;6.10;2.47;;;;;;;13.77;26.78;99761.25;4916845;28;20459;-58
2023/04/19 02:09:41;;;;;;;8.50;2.92;;;;;;;13.79;27.52;99764.69;4917425;28;20760;-58
2023/04/19 02:12:12;;;;;;;9.68;2.90;;;;;;;13.88;27.57;99762.63;4917770;28;20152;-58
2023/04/19 02:14:42;;;;;;;11.07;2.97;;;;;;;13.94;27.48;99762.41;4933855;28;20051;-59
2023/04/19 02:17:13;;;;;;;10.77;3.07;;;;;;;13.90;27.46;99755.53;4936804;28;20305;-59
2023/04/19 02:19:43;;;;;;;9.93;2.60;;;;;;;14.07;27.91;99750.50;4927014;28;20293;-59
2023/04/19 02:22:14;;;;;;;12.07;2.63;;;;;;;14.17;28.33;99745.72;4934703;28;20290;-59
2023/04/19 02:24:50;;;;;;;5.83;2.80;;;;;;;14.20;27.17;99743.84;4937327;28;20277;-59
2023/04/19 02:27:20;;;;;;;7.57;2.67;;;;;;;14.19;27.62;99731.63;4929152;28;20360;-59
2023/04/19 02:29:51;;;;;;;10.97;3.13;;;;;;;14.22;27.03;99731.50;4933770;28;20043;-59
2023/04/19 02:32:25;;;;;;;10.80;2.30;;;;;;;14.21;27.34;99719.28;4934073;28;20429;-59
2023/04/19 02:34:56;;;;;;;6.93;2.78;;;;;;;14.15;27.28;99722.16;4925325;28;20298;-58
2023/04/19 02:37:26;;;;;;;7.83;3.40;;;;;;;14.30;27.20;99723.28;4924131;28;20045;-55
2023/04/19 02:39:58;;;;;;;7.03;2.60;;;;;;;14.15;26.67;99709.03;4941996;28;20354;-58
2023/04/19 02:42:29;;;;;;;10.60;2.70;;;;;;;14.23;27.09;99709.56;4935242;28;20289;-59
2023/04/19 02:45:00;;;;;;;9.57;3.23;;;;;;;14.33;26.77;99711.84;4935238;28;20277;-58
2023/04/19 02:47:30;;;;;;;8.53;2.60;;;;;;;14.39;26.51;99706.31;4935277;28;20292;-58
2023/04/19 02:50:01;;;;;;;6.53;2.70;;;;;;;14.42;26.33;99706.19;4935332;28;20286;-58
2023/04/19 02:52:32;;;;;;;5.37;2.40;;;;;;;14.42;27.12;99716.69;4934043;28;20290;-58
2023/04/19 02:55:04;;;;;;;7.70;2.57;;;;;;;14.51;26.66;99710.22;4935275;28;20673;-59
2023/04/19 02:57:34;;;;;;;6.47;2.70;;;;;;;14.44;26.00;99704.34;4918393;28;20287;-58
2023/04/19 03:00:07;;;;;;;6.30;2.73;;;;;;;14.41;26.54;99691.34;4935734;28;20286;-59
2023/04/19 03:02:38;;;;;;;6.93;2.40;;;;;;;14.43;26.44;99692.13;4927591;28;20313;-58
2023/04/19 03:05:09;;;;;;;7.10;2.33;;;;;;;14.41;26.66;99697.44;4934844;28;20319;-58
2023/04/19 03:07:40;;;;;;;9.80;2.53;;;;;;;14.46;27.15;99692.00;4934743;28;20281;-58
2023/04/19 03:10:14;;;;;;;8.47;2.60;;;;;;;14.61;27.57;99694.03;4941767;28;20286;-58
2023/04/19 03:12:45;;;;;;;6.67;2.20;;;;;;;14.66;27.15;99689.44;4938864;28;20297;-59
2023/04/19 03:15:15;;;;;;;7.53;2.40;;;;;;;14.70;26.65;99689.28;4937281;28;20346;-59
2023/04/19 03:17:46;;;;;;;7.17;2.57;;;;;;;14.83;26.23;99672.94;4920179;28;20278;-58
2023/04/19 03:20:17;;;;;;;7.43;2.40;;;;;;;14.83;26.42;99674.72;4922261;28;20285;-58
2023/04/19 03:22:48;;;;;;;12.73;2.97;;;;;;;14.77;26.39;99674.97;4931940;28;20333;-58
2023/04/19 03:25:21;;;;;;;8.60;2.97;;;;;;;14.77;26.69;99670.53;4930439;28;20328;-58
2023/04/19 03:27:51;;;;;;;7.10;2.50;;;;;;;14.96;27.01;99667.97;4930594;28;20290;-58
2023/04/19 03:30:22;;;;;;;7.90;2.70;;;;;;;15.02;26.56;99657.19;4942107;28;20324;-58
2023/04/19 03:32:53;;;;;;;11.70;2.80;;;;;;;15.06;26.10;99661.41;4920547;28;20613;-59
2023/04/19 03:35:25;;;;;;;5.07;2.73;;;;;;;15.31;26.87;99671.66;4939878;28;20282;-58
2023/04/19 03:37:55;;;;;;;9.73;2.87;;;;;;;15.45;26.74;99660.53;4931448;28;20301;-58
2023/04/19 03:40:27;;;;;;;9.33;2.90;;;;;;;15.31;25.00;99655.03;4938200;28;20282;-58
2023/04/19 03:42:58;;;;;;;9.73;2.97;;;;;;;15.20;25.72;99652.00;4915928;28;20302;-58
2023/04/19 03:45:28;;;;;;;6.90;2.67;;;;;;;15.21;26.00;99637.94;4938334;28;20290;-58
2023/04/19 03:48:00;;;;;;;12.73;3.13;;;;;;;15.31;26.01;99639.25;4938537;28;20338;-58
2023/04/19 03:50:31;;;;;;;9.70;2.70;;;;;;;15.26;25.93;99630.69;4929346;28;21109;-58
2023/04/19 03:53:03;;;;;;;8.57;2.87;;;;;;;15.22;25.52;99629.13;4931978;28;20281;-59
2023/04/19 03:55:36;;;;;;;9.37;3.07;;;;;;;15.07;26.43;99631.50;4937362;28;20385;-59
2023/04/19 03:58:06;;;;;;;9.50;3.00;;;;;;;14.95;27.00;99624.19;4941533;28;20280;-58
2023/04/19 04:00:38;;;;;;;10.00;2.80;;;;;;;14.88;27.08;99622.75;4937366;28;20366;-58
2023/04/19 04:03:08;;;;;;;10.33;3.03;;;;;;;15.00;27.38;99614.31;4940708;28;21014;-58
2023/04/19 04:05:39;;;;;;;6.20;3.40;;;;;;;15.06;27.10;99616.66;4942374;28;20296;-58
2023/04/19 04:08:10;;;;;;;11.77;3.13;;;;;;;14.88;27.02;99578.03;4941157;28;20384;-58
2023/04/19 04:10:42;;;;;;;10.10;3.10;;;;;;;15.19;27.51;99610.84;4939327;28;20324;-58
2023/04/19 04:13:12;;;;;;;11.47;2.90;;;;;;;15.28;27.45;99607.81;4924734;28;21080;-58
2023/04/19 04:15:43;;;;;;;10.67;3.20;;;;;;;15.37;27.42;99596.81;4934040;28;20285;-59
2023/04/19 04:18:13;;;;;;;9.70;3.47;;;;;;;15.32;27.26;99598.81;4918599;28;20297;-57
2023/04/19 04:20:45;;;;;;;20.43;4.33;;;;;;;15.30;28.15;99598.03;4936896;28;20380;-59
2023/04/19 04:23:15;;;;;;;12.37;3.73;;;;;;;15.32;28.11;99596.19;4930270;28;21083;-59
2023/04/19 04:25:48;;;;;;;11.60;3.67;;;;;;;15.16;29.73;99592.56;4929470;28;20270;-56
2023/04/19 04:28:19;;;;;;;10.00;3.40;;;;;;;15.04;31.10;99589.56;4928302;28;20282;-59
2023/04/19 04:30:50;;;;;;;10.87;3.40;;;;;;;14.99;32.75;99604.69;4929467;28;20363;-59
2023/04/19 04:33:21;;;;;;;10.57;3.13;;;;;;;14.98;33.11;99600.38;4930347;28;20365;-59
2023/04/19 04:35:52;;;;;;;10.17;2.87;;;;;;;14.81;33.38;99587.13;4930272;28;20286;-58
2023/04/19 04:38:22;;;;;;;5.97;2.90;;;;;;;14.72;33.89;99582.25;4930403;28;20279;-58
2023/04/19 04:40:57;;;;;;;9.33;3.33;;;;;;;14.72;34.38;99584.91;4928985;28;20278;-59
2023/04/19 04:43:28;;;;;;;10.90;3.43;;;;;;;14.62;35.04;99587.91;4921909;28;20289;-58
2023/04/19 04:45:59;;;;;;;13.73;3.47;;;;;;;14.35;35.37;99583.81;4929307;28;20274;-58
2023/04/19 04:48:31;;;;;;;9.97;2.73;;;;;;;14.24;35.75;99581.66;4938431;28;20799;-58
2023/04/19 04:51:02;;;;;;;10.57;3.13;;;;;;;13.96;36.34;99556.56;4930862;28;20775;-59
2023/04/19 04:53:33;;;;;;;10.10;3.17;;;;;;;14.02;36.27;99579.06;4920346;28;20610;-58
2023/04/19 04:56:06;;;;;;;17.20;3.40;;;;;;;13.95;36.53;99596.88;4928232;28;20288;-58
2023/04/19 04:58:37;;;;;;;9.23;3.27;;;;;;;13.85;36.70;99594.66;4925500;28;20368;-58
2023/04/19 05:01:07;;;;;;;14.67;3.30;;;;;;;13.88;37.18;99589.28;4934982;28;20354;-59
2023/04/19 05:03:38;;;;;;;15.50;3.87;;;;;;;13.65;37.12;99582.34;4931354;28;20298;-58
2023/04/19 05:06:09;;;;;;;15.97;3.97;;;;;;;13.55;37.70;99587.97;4928170;28;20347;-59
2023/04/19 05:08:39;;;;;;;16.37;3.80;;;;;;;13.51;37.96;99580.28;4925715;28;20310;-59
2023/04/19 05:11:11;;;;;;;18.85;4.22;;;;;;;13.64;38.47;99585.91;4926401;28;20299;-58
2023/04/19 05:13:42;;;;;;;14.47;4.40;;;;;;;13.72;38.37;99574.16;4924026;28;20052;-58
2023/04/19 05:16:13;;;;;;;13.17;4.10;;;;;;;13.55;38.42;99581.84;4929407;28;20286;-58
2023/04/19 05:18:43;;;;;;;16.67;4.13;;;;;;;13.48;39.27;99583.00;4942653;28;20281;-59
2023/04/19 05:21:14;;;;;;;14.73;4.07;;;;;;;13.36;39.81;99582.56;4935151;28;21028;-59
2023/04/19 05:23:45;;;;;;;12.48;4.35;;;;;;;13.32;40.20;99586.22;4913918;28;20290;-59
2023/04/19 05:26:18;;;;;;;15.47;7.67;;;;;;;13.37;40.66;99586.91;4914156;28;20781;-59
2023/04/19 05:28:48;;;;;;;16.00;4.28;;;;;;;13.42;40.49;99588.50;4907403;28;20279;-58
2023/04/19 05:31:19;;;;;;;11.13;4.10;;;;;;;13.42;40.67;99591.13;4908802;28;20045;-57
2023/04/19 05:33:51;;;;;;;9.60;4.90;;;;;;;13.40;40.60;99593.78;4911051;28;20382;-59
2023/04/19 05:36:22;;;;;;;19.53;5.37;;;;;;;13.48;40.89;99596.13;4913186;28;20304;-59
2023/04/19 05:38:53;;;;;;;19.80;5.20;;;;;;;13.57;40.99;99593.16;4913865;28;21055;-59
2023/04/19 05:41:25;;;;;;;11.73;4.35;;;;;;;13.56;40.59;99604.56;4914633;28;20146;-58
2023/04/19 05:43:56;;;;;;;10.13;4.38;;;;;;;13.35;41.09;99596.63;4900764;28;20046;-58
2023/04/19 05:46:26;;;;;;;10.87;4.87;;;;;;;13.14;41.42;99595.63;4895887;28;22689;-59
2023/04/19 05:48:57;;;;;;;12.83;4.53;;;;;;;12.91;41.62;99600.88;4909599;28;20403;-58
2023/04/19 05:51:28;;;;;;;13.65;5.07;;;;;;;13.02;42.23;99603.94;4918676;28;20287;-59
2023/04/19 05:53:58;;;;;;;10.65;5.10;;;;;;;13.12;41.96;99604.47;4912721;28;21793;-59
2023/04/19 05:56:30;;;;;;;20.45;6.82;;;;;;;13.06;41.61;99599.47;4915383;28;20048;-59
2023/04/19 05:59:01;;;;;;;18.63;7.13;;;;;;;12.90;41.68;99605.28;4910702;28;20054;-58
2023/04/19 06:01:32;;;;;;;24.73;7.45;;;;;;;12.86;42.07;99601.03;4910818;28;20895;-59
2023/04/19 06:04:02;;;;;;;19.73;7.25;;;;;;;12.93;42.20;99599.91;4912593;28;20649;-59
2023/04/19 06:06:33;;;;;;;22.40;7.72;;;;;;;12.99;42.18;99587.47;4911753;28;20108;-58
2023/04/19 06:09:05;;;;;;;20.38;7.78;;;;;;;13.01;42.61;99590.91;4912598;28;20063;-59
2023/04/19 06:11:37;;;;;;;23.92;8.23;;;;;;;12.77;42.66;99593.50;4912875;28;20151;-58
2023/04/19 06:14:19;;;;;;;22.80;7.53;;;;;;;12.58;43.32;99597.69;4905227;28;20048;-58
2023/04/19 06:16:50;;;;;;;21.40;8.88;;;;;;;12.50;43.46;99595.31;4915232;28;20044;-58
2023/04/19 06:19:20;;;;;;;30.48;9.77;;;;;;;12.49;43.13;99604.97;4913829;28;20502;-58
2023/04/19 06:21:51;;;;;;;19.15;8.50;;;;;;;12.35;43.44;99594.09;4922926;28;20056;-59
2023/04/19 06:24:21;;;;;;;25.13;8.90;;;;;;;12.42;43.65;99598.22;4917122;28;20053;-58
2023/04/19 06:26:54;;;;;;;21.25;8.75;;;;;;;12.40;43.80;99594.78;4933991;28;20055;-58
2023/04/19 06:29:24;;;;;;;21.27;8.05;;;;;;;12.38;44.35;99598.38;4934663;28;20043;-58
2023/04/19 06:31:55;;;;;;;22.73;8.95;;;;;;;12.32;44.20;99596.81;4934528;28;20678;-57
2023/04/19 06:34:25;;;;;;;25.83;9.15;;;;;;;12.19;43.95;99608.63;4934590;28;20079;-57
2023/04/19 06:36:56;;;;;;;23.05;8.65;;;;;;;12.06;44.16;99609.03;4934655;28;20048;-58
2023/04/19 06:39:27;;;;;;;25.05;8.48;;;;;;;11.98;44.24;99597.97;4931495;28;20052;-57
2023/04/19 06:41:59;;;;;;;21.77;8.45;;;;;;;11.95;44.28;99607.66;4917317;28;20164;-56
2023/04/19 06:44:30;;;;;;;21.60;8.40;;;;;;;11.89;44.51;99603.50;4932076;28;20892;-58
2023/04/19 06:47:01;;;;;;;24.63;9.40;;;;;;;11.86;44.25;99620.16;4935139;28;20127;-58
2023/04/19 06:49:32;;;;;;;19.67;7.05;;;;;;;11.68;44.74;99614.59;4934165;28;20840;-59
2023/04/19 06:52:02;;;;;;;20.52;7.82;;;;;;;11.59;45.07;99621.84;4933732;28;20048;-58
2023/04/19 06:54:33;;;;;;;20.30;6.78;;;;;;;11.54;45.59;99618.50;4936656;28;20760;-58
2023/04/19 06:57:05;;;;;;;22.95;8.00;;;;;;;11.43;45.79;99611.00;4937727;28;20063;-58
2023/04/19 06:59:38;;;;;;;14.30;7.40;;;;;;;11.37;46.30;99615.53;4937542;28;20054;-58
2023/04/19 07:02:09;;;;;;;14.32;7.32;;;;;;;11.41;46.29;99617.19;4909419;28;20044;-58
2023/04/19 07:04:39;;;;;;;16.42;7.70;;;;;;;11.47;46.25;99611.75;4919475;28;20041;-58
2023/04/19 07:07:10;;;;;;;18.73;7.47;;;;;;;11.49;46.59;99609.94;4923213;28;20062;-58
2023/04/19 07:09:41;;;;;;;25.27;7.63;;;;;;;11.39;46.49;99618.97;4933483;28;20061;-58
2023/04/19 07:12:14;;;;;;;13.98;7.47;;;;;;;11.32;46.42;99606.97;4936598;28;20592;-57
2023/04/19 07:14:44;;;;;;;17.27;7.35;;;;;;;11.39;46.28;99613.75;4917197;28;20044;-58
2023/04/19 07:17:16;;;;;;;18.08;7.82;;;;;;;11.41;46.47;99604.94;4931729;28;20070;-57
2023/04/19 07:19:49;;;;;;;19.08;7.30;;;;;;;11.39;45.96;99605.91;4937828;28;20048;-56
2023/04/19 07:22:19;;;;;;;20.23;7.20;;;;;;;11.22;46.67;99612.47;4925379;28;20071;-57
2023/04/19 07:24:51;;;;;;;21.80;6.68;;;;;;;11.18;46.90;99623.94;4921569;28;20052;-58
2023/04/19 07:27:23;;;;;;;21.98;6.32;;;;;;;11.05;46.95;99612.09;4922630;28;20501;-58
2023/04/19 07:29:54;;;;;;;20.17;6.95;;;;;;;11.01;47.43;99613.13;4921505;28;20890;-57
2023/04/19 07:32:25;;;;;;;17.65;6.50;;;;;;;10.90;47.81;99615.16;4915437;28;20133;-57
2023/04/19 07:34:55;;;;;;;18.55;6.68;;;;;;;10.82;48.06;99598.84;4899946;28;20049;-58
2023/04/19 07:37:26;;;;;;;16.52;6.47;;;;;;;10.59;48.27;99602.94;4918512;28;20134;-57
2023/04/19 07:39:57;;;;;;;15.88;6.15;;;;;;;10.35;48.95;99605.28;4912754;28;20138;-56
2023/04/19 07:42:30;;;;;;;16.60;6.63;;;;;;;10.05;49.32;99603.44;4920759;28;20046;-56
2023/04/19 07:45:01;;;;;;;16.45;6.68;;;;;;;9.81;49.89;99616.19;4919432;28;20079;-56
2023/04/19 07:47:32;;;;;;;17.63;8.20;;;;;;;9.68;50.25;99609.53;4919038;28;20094;-57
2023/04/19 07:50:04;;;;;;;22.25;7.78;;;;;;;9.58;50.88;99615.84;4921073;28;20068;-56
2023/04/19 07:52:36;;;;;;;15.52;6.68;;;;;;;9.41;51.18;99611.88;4916494;28;20375;-56
2023/04/19 07:55:08;;;;;;;14.65;6.80;;;;;;;9.43;51.78;99599.66;4927463;28;20090;-56
2023/04/19 07:57:44;;;;;;;16.17;5.93;;;;;;;9.38;51.94;99617.13;4918302;28;20040;-56
2023/04/19 08:00:15;;;;;;;15.93;7.50;;;;;;;9.32;52.26;99595.59;4916299;28;20083;-56
2023/04/19 08:02:46;;;;;;;14.15;7.50;;;;;;;9.38;52.05;99611.94;4918114;28;20102;-56
2023/04/19 08:05:17;;;;;;;21.15;8.00;;;;;;;9.36;52.52;99595.50;4911209;28;20817;-56
2023/04/19 08:07:48;;;;;;;17.83;7.60;;;;;;;9.52;52.13;99608.19;4914895;28;20057;-56
2023/04/19 08:10:20;;;;;;;18.98;7.85;;;;;;;9.55;52.50;99608.09;4913862;28;20051;-58
2023/04/19 08:12:52;;;;;;;22.90;8.57;;;;;;;9.61;52.42;99607.94;4917290;28;20049;-59
2023/04/19 08:15:34;;;;;;;15.57;7.93;;;;;;;9.59;52.18;99607.16;4906888;28;20052;-57
2023/04/19 08:18:25;;;;;;;15.80;7.50;;;;;;;9.61;52.46;99607.94;4902870;28;20125;-57
2023/04/19 08:20:56;;;;;;;14.75;7.15;;;;;;;9.73;53.23;99612.88;4921673;28;20043;-55
2023/04/19 08:23:26;;;;;;;24.77;7.03;;;;;;;9.71;53.29;99614.69;4944563;28;20102;-58
2023/04/19 08:26:10;;;;;;;20.92;7.22;;;;;;;9.78;52.92;99618.84;4932525;28;20055;-57
2023/04/19 08:28:42;;;;;;;19.70;7.25;;;;;;;9.63;52.71;99616.59;4945227;28;20375;-57
2023/04/19 08:31:12;;;;;;;16.13;7.28;;;;;;;9.59;53.58;99614.97;4945546;28;20402;-57
2023/04/19 08:33:43;;;;;;;16.65;7.38;;;;;;;9.47;53.35;99610.88;4942235;28;20059;-57
2023/04/19 08:36:13;;;;;;;19.70;7.22;;;;;;;9.24;53.63;99608.78;4943113;28;20052;-57
2023/04/19 08:38:50;;;;;;;22.17;6.80;;;;;;;8.88;54.16;99579.97;4934455;28;20944;-58
2023/04/19 08:41:36;;;;;;;20.65;7.30;;;;;;;8.85;54.73;99600.88;4933574;28;20174;-58
2023/04/19 08:44:09;;;;;;;17.92;7.15;;;;;;;8.79;55.14;99606.22;4944405;28;20824;-57
2023/04/19 08:46:40;;;;;;;16.95;7.32;;;;;;;8.67;55.39;99606.47;4934405;28;20044;-58
2023/04/19 08:49:12;;;;;;;16.80;6.80;;;;;;;8.58;55.93;99603.13;4945010;28;20054;-57
2023/04/19 08:51:43;;;;;;;18.35;6.95;;;;;;;8.51;56.22;99608.47;4944718;28;20559;-57
2023/04/19 08:54:14;;;;;;;14.93;7.00;;;;;;;8.45;56.64;99606.00;4944884;28;20056;-57
2023/04/19 08:56:45;;;;;;;16.67;6.43;;;;;;;8.41;57.07;99594.78;4929710;28;20051;-58
2023/04/19 08:59:17;;;;;;;16.77;6.70;;;;;;;7.99;57.48;99592.88;4927967;28;20083;-57
2023/04/19 09:01:49;;;;;;;13.02;6.80;;;;;;;7.95;57.74;99605.94;4918292;28;20064;-57
2023/04/19 09:04:19;;;;;;;20.67;6.63;;;;;;;7.78;58.17;99609.66;4929834;28;20121;-57
2023/04/19 09:07:08;;;;;;;17.35;6.95;;;;;;;7.60;58.54;99607.34;4933574;28;20047;-57
2023/04/19 09:09:41;;;;;;;16.75;7.70;;;;;;;7.54;59.02;99620.47;4919250;28;20060;-57
2023/04/19 09:12:31;;;;;;;17.25;7.05;;;;;;;7.27;59.70;99601.75;4932881;28;20059;-57
2023/04/19 09:15:04;;;;;;;19.15;7.97;;;;;;;7.19;60.47;99611.41;4943917;28;20047;-58
2023/04/19 09:17:35;;;;;;;20.02;6.20;;;;;;;7.10;60.98;99617.56;4943499;28;20513;-58
2023/04/19 09:20:09;;;;;;;12.07;6.35;;;;;;;7.10;61.41;99614.09;4920754;28;20059;-58
2023/04/19 09:22:39;;;;;;;15.88;6.65;;;;;;;7.03;61.38;99615.06;4928272;28;20044;-58
2023/04/19 09:25:10;;;;;;;14.75;6.28;;;;;;;6.95;61.51;99619.50;4930415;28;20048;-57
2023/04/19 09:27:44;;;;;;;17.33;6.22;;;;;;;6.85;61.68;99610.94;4929079;28;20056;-57
2023/04/19 09:30:26;;;;;;;14.32;6.80;;;;;;;6.83;62.22;99613.56;4928434;28;20052;-58
2023/04/19 09:33:06;;;;;;;13.93;6.15;;;;;;;6.72;62.34;99602.44;4915470;28;20331;-57
2023/04/19 09:35:44;;;;;;;14.63;6.65;;;;;;;6.61;63.13;99588.72;4917951;28;20143;-57
2023/04/19 09:38:18;;;;;;;13.32;6.50;;;;;;;6.69;62.78;99592.09;4922781;28;20474;-58
2023/04/19 09:40:51;;;;;;;14.93;6.85;;;;;;;6.79;62.73;99611.88;4916374;28;20052;-58
2023/04/19 09:43:25;;;;;;;21.73;6.50;;;;;;;6.69;63.01;99616.31;4928231;28;20044;-57
2023/04/19 09:46:34;;;;;;;17.98;6.63;;;;;;;6.53;63.47;99598.31;4930845;28;20055;-57
2023/04/19 09:49:21;;;;;;;13.73;6.20;;;;;;;6.43;63.80;99569.88;4931693;28;20051;-58
2023/04/19 09:52:15;;;;;;;13.27;5.88;;;;;;;6.66;63.38;99607.69;4917068;28;20048;-57
2023/04/19 09:54:47;;;;;;;14.85;6.65;;;;;;;6.75;63.39;99615.38;4928736;28;20055;-57
2023/04/19 09:57:18;;;;;;;12.43;5.97;;;;;;;6.66;63.14;99612.88;4921012;28;20063;-57
2023/04/19 09:59:48;;;;;;;16.02;6.43;;;;;;;6.63;63.49;99612.91;4927434;28;20062;-58
2023/04/19 10:02:23;;;;;;;12.20;6.40;;;;;;;6.48;63.56;99594.03;4929588;28;20055;-58
2023/04/19 10:04:56;;;;;;;14.02;6.25;;;;;;;6.64;63.59;99606.84;4926372;28;20443;-59
2023/04/19 10:07:47;;;;;;;14.38;6.65;;;;;;;6.53;63.36;99611.31;4914143;28;20086;-57
2023/04/19 10:10:19;;;;;;;16.90;6.35;;;;;;;6.29;63.63;99613.28;4929545;28;20059;-58
2023/04/19 10:13:13;;;;;;;23.80;10.50;;;;;;;6.07;64.53;99606.56;4918532;28;20075;-57
2023/04/19 10:15:51;;;;;;;12.27;7.03;;;;;;;6.00;65.17;99610.94;4931786;28;20083;-57
2023/04/19 10:18:39;;;;;;;15.63;7.70;;;;;;;6.08;65.38;99610.88;4932081;28;20154;-58
2023/04/19 10:21:12;;;;;;;15.10;6.78;;;;;;;6.22;65.59;99611.59;4930612;28;20609;-58
2023/04/19 10:23:44;;;;;;;18.65;7.55;;;;;;;6.15;64.74;99604.75;4935457;28;20088;-58
2023/04/19 10:26:21;;;;;;;15.50;7.78;;;;;;;5.99;65.27;99601.41;4929793;28;21576;-57
2023/04/19 10:28:51;;;;;;;11.27;6.57;;;;;;;5.92;65.78;99608.38;4937669;28;20486;-58
2023/04/19 10:31:22;;;;;;;14.00;6.75;;;;;;;5.44;65.50;99548.22;4925781;28;20040;-58
2023/04/19 10:33:56;;;;;;;13.80;7.03;;;;;;;5.78;66.10;99621.41;4921193;28;20067;-57
2023/04/19 10:36:29;;;;;;;18.95;7.57;;;;;;;5.77;66.66;99618.84;4934289;28;20059;-56
2023/04/19 10:39:02;;;;;;;16.77;6.95;;;;;;;5.77;66.60;99613.69;4934720;28;20040;-58
2023/04/19 10:41:59;;;;;;;13.57;7.15;;;;;;;5.77;66.54;99613.69;4934282;28;20047;-58
2023/04/19 10:44:30;;;;;;;15.13;7.47;;;;;;;5.71;66.75;99608.50;4920312;28;20138;-58
2023/04/19 10:47:01;;;;;;;22.27;8.40;;;;;;;5.68;66.68;99632.72;4938320;28;20055;-61
2023/04/19 10:49:46;;;;;;;15.82;7.68;;;;;;;5.24;66.80;99565.63;4915885;28;20059;-58
2023/04/19 10:52:28;;;;;;;20.63;8.65;;;;;;;5.39;67.19;99596.63;4926460;28;20178;-57
2023/04/19 10:55:15;;;;;;;17.40;7.57;;;;;;;5.52;67.46;99619.00;4908746;28;20142;-58
2023/04/19 10:58:07;;;;;;;19.65;9.13;;;;;;;5.53;67.83;99625.91;4922031;28;20608;-57
2023/04/19 11:00:41;;;;;;;40.00;16.05;;;;;;;5.44;68.12;99630.28;4847807;28;20468;-57
2023/04/19 11:03:53;;;;;;;27.58;10.77;;;;;;;5.30;68.27;99643.31;4862434;28;20595;-57
2023/04/19 11:06:26;;;;;;;26.17;9.93;;;;;;;5.12;68.42;99639.09;4835012;28;20089;-57
2023/04/19 11:08:58;;;;;;;24.80;9.18;;;;;;;4.89;68.83;99621.03;4845556;28;20265;-57
2023/04/19 11:11:33;;;;;;;26.30;10.82;;;;;;;4.92;69.49;99629.66;4832701;28;20058;-57
2023/04/19 11:14:08;;;;;;;30.05;11.15;;;;;;;4.90;69.48;99627.97;4835223;28;20073;-57
2023/04/19 11:16:56;;;;;;;24.25;10.00;;;;;;;4.76;69.89;99636.59;4828519;28;20057;-57
2023/04/19 11:19:28;;;;;;;30.88;12.02;;;;;;;4.69;70.27;99644.38;4835040;28;20055;-56
2023/04/19 11:22:11;;;;;;;31.98;10.48;;;;;;;4.26;70.41;99603.94;4832304;28;20603;-57
2023/04/19 11:24:47;;;;;;;25.67;9.57;;;;;;;4.32;71.03;99649.66;4810485;28;20835;-57
2023/04/19 11:27:22;;;;;;;23.55;10.35;;;;;;;4.31;71.69;99638.41;4824876;28;20228;-58
2023/04/19 11:29:52;;;;;;;36.42;11.75;;;;;;;4.37;72.13;99641.84;4848225;28;20503;-58
2023/04/19 11:32:23;;;;;;;28.52;12.73;;;;;;;4.43;72.17;99632.38;4848320;28;20140;-57
2023/04/19 11:34:53;;;;;;;25.58;11.30;;;;;;;4.44;72.59;99633.22;4848571;28;20132;-57
2023/04/19 11:37:25;;;;;;;21.55;10.43;;;;;;;4.39;72.31;99624.63;4874091;28;20048;-57
2023/04/19 11:39:56;;;;;;;27.58;10.85;;;;;;;4.29;72.96;99629.81;4917294;28;20072;-57
2023/04/19 11:42:32;;;;;;;19.02;10.55;;;;;;;4.15;73.13;99622.94;4919515;28;20049;-56
2023/04/19 11:45:05;;;;;;;26.23;11.38;;;;;;;4.18;73.24;99628.97;4904210;28;20044;-58
2023/04/19 11:47:53;;;;;;;35.63;15.05;;;;;;;4.19;72.98;99635.84;4909822;28;20135;-57
2023/04/19 11:50:36;;;;;;;25.77;12.05;;;;;;;3.90;73.23;99589.34;4920690;28;20052;-58
2023/04/19 11:53:22;;;;;;;34.22;16.25;;;;;;;3.91;73.57;99605.69;4906221;28;20054;-56
2023/04/19 11:55:55;;;;;;;28.60;12.82;;;;;;;3.77;74.10;99598.81;4911803;28;20079;-57